sensor_id;sensor_type;location;lat;lon;timestamp;P1;durP1;ratioP1;P2;durP2;ratioP2
63320;SDS011;49449;48.800;9.534;2023-07-31T00:02:26;3.33;;;1.88;;
63320;SDS011;49449;48.800;9.534;2023-07-31T00:04:53;2.72;;;1.73;;
63320;SDS011;49449;48.800;9.534;2023-07-31T00:07:21;3.90;;;1.73;;
63320;SDS011;49449;48.800;9.534;2023-07-31T00:09:49;3.65;;;1.80;;
63320;SDS011;49449;48.800;9.534;2023-07-31T00:12:17;2.13;;;1.60;;
63320;SDS011;49449;48.800;9.534;2023-07-31T00:14:45;3.40;;;1.60;;
63320;SDS011;49449;48.800;9.534;2023-07-31T00:17:13;3.88;;;1.90;;
63320;SDS011;49449;48.800;9.534;2023-07-31T00:19:42;3.45;;;1.67;;
63320;SDS011;49449;48.800;9.534;2023-07-31T00:22:12;3.65;;;1.80;;
63320;SDS011;49449;48.800;9.534;2023-07-31T00:24:40;1.73;;;1.50;;
63320;SDS011;49449;48.800;9.534;2023-07-31T00:27:08;2.47;;;1.73;;
63320;SDS011;49449;48.800;9.534;2023-07-31T00:29:35;2.20;;;1.52;;
63320;SDS011;49449;48.800;9.534;2023-07-31T00:32:03;2.03;;;1.73;;
63320;SDS011;49449;48.800;9.534;2023-07-31T00:34:32;2.75;;;1.50;;
63320;SDS011;49449;48.800;9.534;2023-07-31T00:37:01;3.90;;;2.00;;
63320;SDS011;49449;48.800;9.534;2023-07-31T00:39:29;2.08;;;1.90;;
63320;SDS011;49449;48.800;9.534;2023-07-31T00:41:57;4.38;;;2.13;;
63320;SDS011;49449;48.800;9.534;2023-07-31T00:44:25;3.03;;;1.70;;
63320;SDS011;49449;48.800;9.534;2023-07-31T00:46:52;2.30;;;1.63;;
63320;SDS011;49449;48.800;9.534;2023-07-31T00:49:21;2.78;;;1.70;;
63320;SDS011;49449;48.800;9.534;2023-07-31T00:51:50;3.75;;;1.95;;
63320;SDS011;49449;48.800;9.534;2023-07-31T00:54:19;2.10;;;1.65;;
63320;SDS011;49449;48.800;9.534;2023-07-31T00:56:47;3.22;;;1.50;;
63320;SDS011;49449;48.800;9.534;2023-07-31T00:59:15;2.28;;;1.90;;
63320;SDS011;49449;48.800;9.534;2023-07-31T01:01:44;2.53;;;1.83;;
63320;SDS011;49449;48.800;9.534;2023-07-31T01:04:13;3.45;;;2.00;;
63320;SDS011;49449;48.800;9.534;2023-07-31T01:06:44;2.47;;;1.85;;
63320;SDS011;49449;48.800;9.534;2023-07-31T01:09:17;2.65;;;1.88;;
63320;SDS011;49449;48.800;9.534;2023-07-31T01:11:56;4.80;;;2.20;;
63320;SDS011;49449;48.800;9.534;2023-07-31T01:14:26;2.30;;;1.80;;
63320;SDS011;49449;48.800;9.534;2023-07-31T01:16:54;2.63;;;1.75;;
63320;SDS011;49449;48.800;9.534;2023-07-31T01:19:23;2.95;;;2.10;;
63320;SDS011;49449;48.800;9.534;2023-07-31T01:24:30;1.98;;;1.83;;
63320;SDS011;49449;48.800;9.534;2023-07-31T01:27:11;1.85;;;1.75;;
63320;SDS011;49449;48.800;9.534;2023-07-31T01:29:43;2.30;;;1.70;;
63320;SDS011;49449;48.800;9.534;2023-07-31T01:32:22;3.55;;;2.00;;
63320;SDS011;49449;48.800;9.534;2023-07-31T01:37:22;4.40;;;1.88;;
63320;SDS011;49449;48.800;9.534;2023-07-31T01:39:55;1.95;;;1.65;;
63320;SDS011;49449;48.800;9.534;2023-07-31T01:42:24;3.53;;;2.00;;
63320;SDS011;49449;48.800;9.534;2023-07-31T01:44:52;4.05;;;1.88;;
63320;SDS011;49449;48.800;9.534;2023-07-31T01:47:21;4.38;;;1.55;;
63320;SDS011;49449;48.800;9.534;2023-07-31T01:49:49;4.60;;;1.63;;
63320;SDS011;49449;48.800;9.534;2023-07-31T01:52:17;3.00;;;1.70;;
63320;SDS011;49449;48.800;9.534;2023-07-31T01:54:45;1.60;;;1.50;;
63320;SDS011;49449;48.800;9.534;2023-07-31T01:57:13;2.25;;;1.67;;
63320;SDS011;49449;48.800;9.534;2023-07-31T01:59:42;2.45;;;1.50;;
63320;SDS011;49449;48.800;9.534;2023-07-31T02:02:10;3.05;;;1.75;;
63320;SDS011;49449;48.800;9.534;2023-07-31T02:04:38;2.90;;;1.80;;
63320;SDS011;49449;48.800;9.534;2023-07-31T02:07:07;3.78;;;1.77;;
63320;SDS011;49449;48.800;9.534;2023-07-31T02:09:34;2.85;;;1.70;;
63320;SDS011;49449;48.800;9.534;2023-07-31T02:12:02;2.25;;;1.73;;
63320;SDS011;49449;48.800;9.534;2023-07-31T02:14:30;3.45;;;1.90;;
63320;SDS011;49449;48.800;9.534;2023-07-31T02:17:00;2.05;;;1.80;;
63320;SDS011;49449;48.800;9.534;2023-07-31T02:19:27;3.25;;;1.95;;
63320;SDS011;49449;48.800;9.534;2023-07-31T02:21:55;3.00;;;1.70;;
63320;SDS011;49449;48.800;9.534;2023-07-31T02:24:23;1.95;;;1.77;;
63320;SDS011;49449;48.800;9.534;2023-07-31T02:26:51;3.10;;;1.90;;
63320;SDS011;49449;48.800;9.534;2023-07-31T02:29:19;2.15;;;1.75;;
63320;SDS011;49449;48.800;9.534;2023-07-31T02:31:47;1.73;;;1.60;;
63320;SDS011;49449;48.800;9.534;2023-07-31T02:34:16;3.10;;;1.65;;
63320;SDS011;49449;48.800;9.534;2023-07-31T02:36:44;1.95;;;1.70;;
63320;SDS011;49449;48.800;9.534;2023-07-31T02:39:12;2.75;;;1.98;;
63320;SDS011;49449;48.800;9.534;2023-07-31T02:41:39;2.20;;;1.60;;
63320;SDS011;49449;48.800;9.534;2023-07-31T02:44:07;2.88;;;1.65;;
63320;SDS011;49449;48.800;9.534;2023-07-31T02:46:36;2.78;;;1.70;;
63320;SDS011;49449;48.800;9.534;2023-07-31T02:49:04;2.05;;;1.67;;
63320;SDS011;49449;48.800;9.534;2023-07-31T02:51:33;2.65;;;1.70;;
63320;SDS011;49449;48.800;9.534;2023-07-31T02:54:01;2.53;;;1.60;;
63320;SDS011;49449;48.800;9.534;2023-07-31T02:56:29;2.25;;;1.30;;
63320;SDS011;49449;48.800;9.534;2023-07-31T02:58:57;3.20;;;1.80;;
63320;SDS011;49449;48.800;9.534;2023-07-31T03:01:24;2.38;;;1.98;;
63320;SDS011;49449;48.800;9.534;2023-07-31T03:03:52;3.17;;;1.90;;
63320;SDS011;49449;48.800;9.534;2023-07-31T03:06:20;2.70;;;1.92;;
63320;SDS011;49449;48.800;9.534;2023-07-31T03:08:49;1.80;;;1.55;;
63320;SDS011;49449;48.800;9.534;2023-07-31T03:11:17;1.60;;;1.50;;
63320;SDS011;49449;48.800;9.534;2023-07-31T03:13:45;3.72;;;2.15;;
63320;SDS011;49449;48.800;9.534;2023-07-31T03:16:12;2.42;;;1.65;;
63320;SDS011;49449;48.800;9.534;2023-07-31T03:18:40;2.10;;;1.88;;
63320;SDS011;49449;48.800;9.534;2023-07-31T03:21:08;2.13;;;1.58;;
63320;SDS011;49449;48.800;9.534;2023-07-31T03:23:36;3.50;;;1.90;;
63320;SDS011;49449;48.800;9.534;2023-07-31T03:26:07;2.00;;;1.83;;
63320;SDS011;49449;48.800;9.534;2023-07-31T03:28:35;2.05;;;1.85;;
63320;SDS011;49449;48.800;9.534;2023-07-31T03:31:03;2.75;;;1.90;;
63320;SDS011;49449;48.800;9.534;2023-07-31T03:33:30;2.25;;;2.05;;
63320;SDS011;49449;48.800;9.534;2023-07-31T03:35:58;2.72;;;2.13;;
63320;SDS011;49449;48.800;9.534;2023-07-31T03:38:26;2.55;;;2.03;;
63320;SDS011;49449;48.800;9.534;2023-07-31T03:40:54;2.28;;;2.08;;
63320;SDS011;49449;48.800;9.534;2023-07-31T03:43:22;4.22;;;2.10;;
63320;SDS011;49449;48.800;9.534;2023-07-31T03:45:51;2.55;;;2.10;;
63320;SDS011;49449;48.800;9.534;2023-07-31T03:48:19;2.05;;;1.77;;
63320;SDS011;49449;48.800;9.534;2023-07-31T03:50:46;2.00;;;1.90;;
63320;SDS011;49449;48.800;9.534;2023-07-31T03:53:14;2.55;;;2.03;;
63320;SDS011;49449;48.800;9.534;2023-07-31T03:55:42;3.80;;;2.25;;
63320;SDS011;49449;48.800;9.534;2023-07-31T03:58:10;2.58;;;1.90;;
63320;SDS011;49449;48.800;9.534;2023-07-31T04:00:39;2.90;;;1.85;;
63320;SDS011;49449;48.800;9.534;2023-07-31T04:03:07;3.03;;;2.00;;
63320;SDS011;49449;48.800;9.534;2023-07-31T04:05:37;2.00;;;1.52;;
63320;SDS011;49449;48.800;9.534;2023-07-31T04:08:06;2.13;;;1.80;;
63320;SDS011;49449;48.800;9.534;2023-07-31T04:10:33;2.45;;;1.70;;
63320;SDS011;49449;48.800;9.534;2023-07-31T04:13:01;3.80;;;1.77;;
63320;SDS011;49449;48.800;9.534;2023-07-31T04:15:29;2.80;;;1.98;;
63320;SDS011;49449;48.800;9.534;2023-07-31T04:17:58;1.92;;;1.83;;
63320;SDS011;49449;48.800;9.534;2023-07-31T04:20:26;2.72;;;2.20;;
63320;SDS011;49449;48.800;9.534;2023-07-31T04:22:54;2.10;;;1.90;;
63320;SDS011;49449;48.800;9.534;2023-07-31T04:25:21;6.40;;;2.35;;
63320;SDS011;49449;48.800;9.534;2023-07-31T04:27:49;3.13;;;2.00;;
63320;SDS011;49449;48.800;9.534;2023-07-31T04:30:17;2.97;;;1.90;;
63320;SDS011;49449;48.800;9.534;2023-07-31T04:32:45;5.25;;;2.17;;
63320;SDS011;49449;48.800;9.534;2023-07-31T04:35:14;4.20;;;2.03;;
63320;SDS011;49449;48.800;9.534;2023-07-31T04:37:42;2.38;;;1.88;;
63320;SDS011;49449;48.800;9.534;2023-07-31T04:40:11;3.30;;;1.92;;
63320;SDS011;49449;48.800;9.534;2023-07-31T04:42:41;2.75;;;1.80;;
63320;SDS011;49449;48.800;9.534;2023-07-31T04:45:09;2.08;;;1.60;;
63320;SDS011;49449;48.800;9.534;2023-07-31T04:47:37;2.80;;;1.77;;
63320;SDS011;49449;48.800;9.534;2023-07-31T04:50:05;2.60;;;2.00;;
63320;SDS011;49449;48.800;9.534;2023-07-31T04:52:35;2.00;;;1.80;;
63320;SDS011;49449;48.800;9.534;2023-07-31T04:55:03;2.38;;;1.85;;
63320;SDS011;49449;48.800;9.534;2023-07-31T04:57:31;2.67;;;1.75;;
63320;SDS011;49449;48.800;9.534;2023-07-31T04:59:59;3.30;;;1.83;;
63320;SDS011;49449;48.800;9.534;2023-07-31T05:02:27;2.47;;;1.73;;
63320;SDS011;49449;48.800;9.534;2023-07-31T05:04:55;3.85;;;2.00;;
63320;SDS011;49449;48.800;9.534;2023-07-31T05:07:22;2.15;;;1.70;;
63320;SDS011;49449;48.800;9.534;2023-07-31T05:09:51;1.95;;;1.67;;
63320;SDS011;49449;48.800;9.534;2023-07-31T05:12:20;3.13;;;1.88;;
63320;SDS011;49449;48.800;9.534;2023-07-31T05:14:47;2.30;;;2.10;;
63320;SDS011;49449;48.800;9.534;2023-07-31T05:17:15;2.42;;;1.80;;
63320;SDS011;49449;48.800;9.534;2023-07-31T05:19:43;1.80;;;1.67;;
63320;SDS011;49449;48.800;9.534;2023-07-31T05:22:11;1.77;;;1.67;;
63320;SDS011;49449;48.800;9.534;2023-07-31T05:24:39;1.92;;;1.75;;
63320;SDS011;49449;48.800;9.534;2023-07-31T05:27:08;2.65;;;1.90;;
63320;SDS011;49449;48.800;9.534;2023-07-31T05:29:36;3.25;;;1.90;;
63320;SDS011;49449;48.800;9.534;2023-07-31T05:32:05;1.85;;;1.67;;
63320;SDS011;49449;48.800;9.534;2023-07-31T05:34:33;2.53;;;1.90;;
63320;SDS011;49449;48.800;9.534;2023-07-31T05:37:01;1.92;;;1.73;;
63320;SDS011;49449;48.800;9.534;2023-07-31T05:39:29;4.63;;;1.80;;
63320;SDS011;49449;48.800;9.534;2023-07-31T05:41:57;1.75;;;1.65;;
63320;SDS011;49449;48.800;9.534;2023-07-31T05:44:26;3.67;;;1.92;;
63320;SDS011;49449;48.800;9.534;2023-07-31T05:46:53;3.75;;;2.50;;
63320;SDS011;49449;48.800;9.534;2023-07-31T05:49:21;5.00;;;2.30;;
63320;SDS011;49449;48.800;9.534;2023-07-31T05:51:49;2.38;;;2.00;;
63320;SDS011;49449;48.800;9.534;2023-07-31T05:54:17;3.33;;;2.50;;
63320;SDS011;49449;48.800;9.534;2023-07-31T05:56:45;3.03;;;2.45;;
63320;SDS011;49449;48.800;9.534;2023-07-31T05:59:12;2.72;;;2.45;;
63320;SDS011;49449;48.800;9.534;2023-07-31T06:01:42;5.07;;;2.83;;
63320;SDS011;49449;48.800;9.534;2023-07-31T06:04:09;3.22;;;2.38;;
63320;SDS011;49449;48.800;9.534;2023-07-31T06:06:37;4.30;;;3.00;;
63320;SDS011;49449;48.800;9.534;2023-07-31T06:09:06;3.28;;;2.58;;
63320;SDS011;49449;48.800;9.534;2023-07-31T06:11:33;4.10;;;2.60;;
63320;SDS011;49449;48.800;9.534;2023-07-31T06:14:01;2.67;;;2.47;;
63320;SDS011;49449;48.800;9.534;2023-07-31T06:16:29;3.35;;;2.13;;
63320;SDS011;49449;48.800;9.534;2023-07-31T06:18:58;2.70;;;2.15;;
63320;SDS011;49449;48.800;9.534;2023-07-31T06:21:26;3.95;;;1.95;;
63320;SDS011;49449;48.800;9.534;2023-07-31T06:23:54;2.58;;;1.90;;
63320;SDS011;49449;48.800;9.534;2023-07-31T06:26:22;2.80;;;1.95;;
63320;SDS011;49449;48.800;9.534;2023-07-31T06:28:50;2.38;;;1.70;;
63320;SDS011;49449;48.800;9.534;2023-07-31T06:31:17;2.15;;;1.95;;
63320;SDS011;49449;48.800;9.534;2023-07-31T06:33:49;3.47;;;1.90;;
63320;SDS011;49449;48.800;9.534;2023-07-31T06:36:18;2.53;;;1.75;;
63320;SDS011;49449;48.800;9.534;2023-07-31T06:38:46;2.20;;;1.73;;
63320;SDS011;49449;48.800;9.534;2023-07-31T06:41:14;2.50;;;1.55;;
63320;SDS011;49449;48.800;9.534;2023-07-31T06:43:41;4.28;;;1.60;;
63320;SDS011;49449;48.800;9.534;2023-07-31T06:46:09;1.90;;;1.60;;
63320;SDS011;49449;48.800;9.534;2023-07-31T06:48:37;4.30;;;1.52;;
63320;SDS011;49449;48.800;9.534;2023-07-31T06:51:05;2.80;;;1.90;;
63320;SDS011;49449;48.800;9.534;2023-07-31T06:53:34;2.45;;;1.70;;
63320;SDS011;49449;48.800;9.534;2023-07-31T06:56:02;3.70;;;2.10;;
63320;SDS011;49449;48.800;9.534;2023-07-31T06:58:31;2.35;;;1.70;;
63320;SDS011;49449;48.800;9.534;2023-07-31T07:00:59;5.40;;;1.88;;
63320;SDS011;49449;48.800;9.534;2023-07-31T07:03:26;3.33;;;1.70;;
63320;SDS011;49449;48.800;9.534;2023-07-31T07:05:54;4.05;;;2.03;;
63320;SDS011;49449;48.800;9.534;2023-07-31T07:08:23;2.30;;;1.70;;
63320;SDS011;49449;48.800;9.534;2023-07-31T07:10:53;3.97;;;2.00;;
63320;SDS011;49449;48.800;9.534;2023-07-31T07:13:21;4.63;;;2.10;;
63320;SDS011;49449;48.800;9.534;2023-07-31T07:15:49;3.55;;;2.05;;
63320;SDS011;49449;48.800;9.534;2023-07-31T07:18:18;2.55;;;1.70;;
63320;SDS011;49449;48.800;9.534;2023-07-31T07:20:49;1.80;;;1.70;;
63320;SDS011;49449;48.800;9.534;2023-07-31T07:23:17;4.47;;;2.00;;
63320;SDS011;49449;48.800;9.534;2023-07-31T07:25:45;4.82;;;1.98;;
63320;SDS011;49449;48.800;9.534;2023-07-31T07:28:15;3.05;;;2.08;;
63320;SDS011;49449;48.800;9.534;2023-07-31T07:30:43;3.35;;;1.90;;
63320;SDS011;49449;48.800;9.534;2023-07-31T07:33:11;3.10;;;2.20;;
63320;SDS011;49449;48.800;9.534;2023-07-31T07:35:38;2.70;;;2.10;;
63320;SDS011;49449;48.800;9.534;2023-07-31T07:38:06;4.47;;;2.45;;
63320;SDS011;49449;48.800;9.534;2023-07-31T07:40:37;3.17;;;1.85;;
63320;SDS011;49449;48.800;9.534;2023-07-31T07:43:06;4.32;;;2.05;;
63320;SDS011;49449;48.800;9.534;2023-07-31T07:45:35;3.88;;;1.92;;
63320;SDS011;49449;48.800;9.534;2023-07-31T07:48:03;5.68;;;1.90;;
63320;SDS011;49449;48.800;9.534;2023-07-31T07:50:32;3.58;;;1.70;;
63320;SDS011;49449;48.800;9.534;2023-07-31T07:53:00;4.30;;;2.20;;
63320;SDS011;49449;48.800;9.534;2023-07-31T07:55:27;3.10;;;2.10;;
63320;SDS011;49449;48.800;9.534;2023-07-31T07:57:55;3.58;;;2.00;;
63320;SDS011;49449;48.800;9.534;2023-07-31T08:00:23;4.47;;;2.22;;
63320;SDS011;49449;48.800;9.534;2023-07-31T08:02:52;5.10;;;2.25;;
63320;SDS011;49449;48.800;9.534;2023-07-31T08:05:20;4.47;;;1.98;;
63320;SDS011;49449;48.800;9.534;2023-07-31T08:07:48;4.68;;;2.30;;
63320;SDS011;49449;48.800;9.534;2023-07-31T08:10:16;6.05;;;2.22;;
63320;SDS011;49449;48.800;9.534;2023-07-31T08:12:44;5.10;;;2.42;;
63320;SDS011;49449;48.800;9.534;2023-07-31T08:15:12;3.75;;;1.85;;
63320;SDS011;49449;48.800;9.534;2023-07-31T08:17:39;4.22;;;2.40;;
63320;SDS011;49449;48.800;9.534;2023-07-31T08:20:09;2.50;;;2.10;;
63320;SDS011;49449;48.800;9.534;2023-07-31T08:22:38;4.82;;;2.00;;
63320;SDS011;49449;48.800;9.534;2023-07-31T08:25:06;3.10;;;2.20;;
63320;SDS011;49449;48.800;9.534;2023-07-31T08:27:35;3.00;;;2.35;;
63320;SDS011;49449;48.800;9.534;2023-07-31T08:30:03;2.55;;;2.20;;
63320;SDS011;49449;48.800;9.534;2023-07-31T08:32:31;3.65;;;2.00;;
63320;SDS011;49449;48.800;9.534;2023-07-31T08:34:59;4.00;;;2.00;;
63320;SDS011;49449;48.800;9.534;2023-07-31T08:37:28;3.92;;;2.10;;
63320;SDS011;49449;48.800;9.534;2023-07-31T08:39:56;4.28;;;2.10;;
63320;SDS011;49449;48.800;9.534;2023-07-31T08:42:24;4.55;;;2.65;;
63320;SDS011;49449;48.800;9.534;2023-07-31T08:44:53;4.55;;;2.05;;
63320;SDS011;49449;48.800;9.534;2023-07-31T08:47:22;2.55;;;1.90;;
63320;SDS011;49449;48.800;9.534;2023-07-31T08:49:51;3.85;;;2.22;;
63320;SDS011;49449;48.800;9.534;2023-07-31T08:52:20;5.68;;;2.10;;
63320;SDS011;49449;48.800;9.534;2023-07-31T08:54:50;3.85;;;2.25;;
63320;SDS011;49449;48.800;9.534;2023-07-31T08:57:18;5.45;;;2.50;;
63320;SDS011;49449;48.800;9.534;2023-07-31T08:59:46;4.10;;;2.35;;
63320;SDS011;49449;48.800;9.534;2023-07-31T09:02:14;2.85;;;2.30;;
63320;SDS011;49449;48.800;9.534;2023-07-31T09:04:43;3.50;;;2.20;;
63320;SDS011;49449;48.800;9.534;2023-07-31T09:07:11;3.72;;;1.95;;
63320;SDS011;49449;48.800;9.534;2023-07-31T09:09:41;3.72;;;2.10;;
63320;SDS011;49449;48.800;9.534;2023-07-31T09:12:10;4.82;;;2.20;;
63320;SDS011;49449;48.800;9.534;2023-07-31T09:14:38;4.90;;;2.50;;
63320;SDS011;49449;48.800;9.534;2023-07-31T09:17:07;4.95;;;2.75;;
63320;SDS011;49449;48.800;9.534;2023-07-31T09:19:36;6.53;;;2.33;;
63320;SDS011;49449;48.800;9.534;2023-07-31T09:22:04;9.18;;;2.75;;
63320;SDS011;49449;48.800;9.534;2023-07-31T09:24:33;4.15;;;2.35;;
63320;SDS011;49449;48.800;9.534;2023-07-31T09:27:02;2.88;;;1.95;;
63320;SDS011;49449;48.800;9.534;2023-07-31T09:29:31;3.63;;;2.13;;
63320;SDS011;49449;48.800;9.534;2023-07-31T09:31:59;4.60;;;2.40;;
63320;SDS011;49449;48.800;9.534;2023-07-31T09:34:30;6.25;;;2.28;;
63320;SDS011;49449;48.800;9.534;2023-07-31T09:37:05;3.70;;;2.13;;
63320;SDS011;49449;48.800;9.534;2023-07-31T09:39:33;4.82;;;2.17;;
63320;SDS011;49449;48.800;9.534;2023-07-31T09:42:13;6.30;;;2.35;;
63320;SDS011;49449;48.800;9.534;2023-07-31T09:44:42;4.88;;;2.40;;
63320;SDS011;49449;48.800;9.534;2023-07-31T09:47:20;5.32;;;2.58;;
63320;SDS011;49449;48.800;9.534;2023-07-31T09:49:50;3.63;;;2.20;;
63320;SDS011;49449;48.800;9.534;2023-07-31T09:52:17;5.93;;;2.20;;
63320;SDS011;49449;48.800;9.534;2023-07-31T09:54:45;4.00;;;2.30;;
63320;SDS011;49449;48.800;9.534;2023-07-31T09:57:13;4.22;;;2.42;;
63320;SDS011;49449;48.800;9.534;2023-07-31T09:59:45;6.50;;;2.50;;
63320;SDS011;49449;48.800;9.534;2023-07-31T10:02:15;3.67;;;2.47;;
63320;SDS011;49449;48.800;9.534;2023-07-31T10:04:49;3.33;;;2.00;;
63320;SDS011;49449;48.800;9.534;2023-07-31T10:07:18;4.78;;;2.20;;
63320;SDS011;49449;48.800;9.534;2023-07-31T10:09:47;3.53;;;2.00;;
63320;SDS011;49449;48.800;9.534;2023-07-31T10:12:17;4.28;;;2.53;;
63320;SDS011;49449;48.800;9.534;2023-07-31T10:14:51;6.28;;;2.53;;
63320;SDS011;49449;48.800;9.534;2023-07-31T10:17:20;4.55;;;2.35;;
63320;SDS011;49449;48.800;9.534;2023-07-31T10:19:49;3.97;;;2.22;;
63320;SDS011;49449;48.800;9.534;2023-07-31T10:22:18;4.68;;;2.40;;
63320;SDS011;49449;48.800;9.534;2023-07-31T10:24:46;4.90;;;2.40;;
63320;SDS011;49449;48.800;9.534;2023-07-31T10:27:16;4.15;;;2.13;;
63320;SDS011;49449;48.800;9.534;2023-07-31T10:29:44;4.47;;;2.63;;
63320;SDS011;49449;48.800;9.534;2023-07-31T10:32:15;3.58;;;2.33;;
63320;SDS011;49449;48.800;9.534;2023-07-31T10:37:19;2.70;;;1.92;;
63320;SDS011;49449;48.800;9.534;2023-07-31T10:39:55;3.83;;;2.20;;
63320;SDS011;49449;48.800;9.534;2023-07-31T10:42:27;2.97;;;2.33;;
63320;SDS011;49449;48.800;9.534;2023-07-31T10:44:58;4.93;;;2.53;;
63320;SDS011;49449;48.800;9.534;2023-07-31T10:47:28;3.08;;;1.80;;
63320;SDS011;49449;48.800;9.534;2023-07-31T10:50:12;3.88;;;2.30;;
63320;SDS011;49449;48.800;9.534;2023-07-31T10:52:43;4.05;;;2.35;;
63320;SDS011;49449;48.800;9.534;2023-07-31T10:55:14;2.97;;;2.25;;
63320;SDS011;49449;48.800;9.534;2023-07-31T10:57:44;3.38;;;2.35;;
63320;SDS011;49449;48.800;9.534;2023-07-31T11:00:18;4.57;;;2.10;;
63320;SDS011;49449;48.800;9.534;2023-07-31T11:02:57;4.85;;;2.40;;
63320;SDS011;49449;48.800;9.534;2023-07-31T11:05:45;2.92;;;2.10;;
63320;SDS011;49449;48.800;9.534;2023-07-31T11:08:20;3.30;;;2.45;;
63320;SDS011;49449;48.800;9.534;2023-07-31T11:10:50;8.48;;;2.63;;
63320;SDS011;49449;48.800;9.534;2023-07-31T11:13:32;4.00;;;2.00;;
63320;SDS011;49449;48.800;9.534;2023-07-31T11:16:00;4.45;;;2.42;;
63320;SDS011;49449;48.800;9.534;2023-07-31T11:18:30;5.50;;;2.38;;
63320;SDS011;49449;48.800;9.534;2023-07-31T11:20:57;3.75;;;2.58;;
63320;SDS011;49449;48.800;9.534;2023-07-31T11:23:25;5.80;;;2.53;;
63320;SDS011;49449;48.800;9.534;2023-07-31T11:25:53;4.82;;;2.40;;
63320;SDS011;49449;48.800;9.534;2023-07-31T11:28:31;4.05;;;2.50;;
63320;SDS011;49449;48.800;9.534;2023-07-31T11:31:01;5.57;;;2.47;;
63320;SDS011;49449;48.800;9.534;2023-07-31T11:33:31;3.22;;;2.20;;
63320;SDS011;49449;48.800;9.534;2023-07-31T11:35:58;6.63;;;2.75;;
63320;SDS011;49449;48.800;9.534;2023-07-31T11:38:27;6.65;;;2.75;;
63320;SDS011;49449;48.800;9.534;2023-07-31T11:40:56;5.07;;;2.67;;
63320;SDS011;49449;48.800;9.534;2023-07-31T11:43:25;17.48;;;3.67;;
63320;SDS011;49449;48.800;9.534;2023-07-31T11:45:54;5.90;;;2.92;;
63320;SDS011;49449;48.800;9.534;2023-07-31T11:48:24;3.90;;;2.42;;
63320;SDS011;49449;48.800;9.534;2023-07-31T11:50:57;6.18;;;2.80;;
63320;SDS011;49449;48.800;9.534;2023-07-31T11:53:27;11.07;;;3.58;;
63320;SDS011;49449;48.800;9.534;2023-07-31T11:55:59;5.53;;;2.50;;
63320;SDS011;49449;48.800;9.534;2023-07-31T11:58:28;4.75;;;2.47;;
63320;SDS011;49449;48.800;9.534;2023-07-31T12:00:57;6.60;;;2.90;;
63320;SDS011;49449;48.800;9.534;2023-07-31T12:03:25;8.57;;;2.80;;
63320;SDS011;49449;48.800;9.534;2023-07-31T12:05:55;30.13;;;4.40;;
63320;SDS011;49449;48.800;9.534;2023-07-31T12:08:23;7.95;;;2.60;;
63320;SDS011;49449;48.800;9.534;2023-07-31T12:10:52;22.05;;;4.25;;
63320;SDS011;49449;48.800;9.534;2023-07-31T12:13:21;3.45;;;2.60;;
63320;SDS011;49449;48.800;9.534;2023-07-31T12:15:53;4.13;;;2.30;;
63320;SDS011;49449;48.800;9.534;2023-07-31T12:18:24;3.00;;;2.20;;
63320;SDS011;49449;48.800;9.534;2023-07-31T12:20:54;3.55;;;2.58;;
63320;SDS011;49449;48.800;9.534;2023-07-31T12:23:25;4.57;;;2.55;;
63320;SDS011;49449;48.800;9.534;2023-07-31T12:26:01;5.25;;;2.63;;
63320;SDS011;49449;48.800;9.534;2023-07-31T12:28:30;4.22;;;2.80;;
63320;SDS011;49449;48.800;9.534;2023-07-31T12:31:01;6.28;;;2.97;;
63320;SDS011;49449;48.800;9.534;2023-07-31T12:33:33;6.82;;;2.80;;
63320;SDS011;49449;48.800;9.534;2023-07-31T12:36:03;5.22;;;2.70;;
63320;SDS011;49449;48.800;9.534;2023-07-31T12:38:34;4.18;;;2.58;;
63320;SDS011;49449;48.800;9.534;2023-07-31T12:41:01;4.65;;;2.42;;
63320;SDS011;49449;48.800;9.534;2023-07-31T12:43:30;5.93;;;2.92;;
63320;SDS011;49449;48.800;9.534;2023-07-31T12:45:57;4.93;;;2.65;;
63320;SDS011;49449;48.800;9.534;2023-07-31T12:48:25;6.90;;;2.70;;
63320;SDS011;49449;48.800;9.534;2023-07-31T12:50:53;2.92;;;2.22;;
63320;SDS011;49449;48.800;9.534;2023-07-31T12:53:22;4.75;;;3.22;;
63320;SDS011;49449;48.800;9.534;2023-07-31T12:55:50;5.18;;;2.67;;
63320;SDS011;49449;48.800;9.534;2023-07-31T12:58:17;5.35;;;2.83;;
63320;SDS011;49449;48.800;9.534;2023-07-31T13:00:45;3.60;;;2.10;;
63320;SDS011;49449;48.800;9.534;2023-07-31T13:03:13;3.95;;;2.28;;
63320;SDS011;49449;48.800;9.534;2023-07-31T13:05:41;3.03;;;2.25;;
63320;SDS011;49449;48.800;9.534;2023-07-31T13:08:09;4.93;;;2.60;;
63320;SDS011;49449;48.800;9.534;2023-07-31T13:10:39;3.90;;;2.53;;
63320;SDS011;49449;48.800;9.534;2023-07-31T13:13:07;3.67;;;2.40;;
63320;SDS011;49449;48.800;9.534;2023-07-31T13:15:36;3.95;;;2.70;;
63320;SDS011;49449;48.800;9.534;2023-07-31T13:18:04;4.30;;;2.20;;
63320;SDS011;49449;48.800;9.534;2023-07-31T13:20:32;4.22;;;2.50;;
63320;SDS011;49449;48.800;9.534;2023-07-31T13:23:00;4.60;;;2.72;;
63320;SDS011;49449;48.800;9.534;2023-07-31T13:25:27;4.63;;;2.78;;
63320;SDS011;49449;48.800;9.534;2023-07-31T13:27:57;5.53;;;3.10;;
63320;SDS011;49449;48.800;9.534;2023-07-31T13:30:26;3.95;;;2.95;;
63320;SDS011;49449;48.800;9.534;2023-07-31T13:32:54;5.30;;;2.65;;
63320;SDS011;49449;48.800;9.534;2023-07-31T13:35:22;3.55;;;2.28;;
63320;SDS011;49449;48.800;9.534;2023-07-31T13:37:49;2.88;;;2.40;;
63320;SDS011;49449;48.800;9.534;2023-07-31T13:40:17;3.63;;;2.72;;
63320;SDS011;49449;48.800;9.534;2023-07-31T13:42:45;4.35;;;2.28;;
63320;SDS011;49449;48.800;9.534;2023-07-31T13:45:15;4.60;;;2.58;;
63320;SDS011;49449;48.800;9.534;2023-07-31T13:47:43;4.20;;;2.78;;
63320;SDS011;49449;48.800;9.534;2023-07-31T13:50:11;3.53;;;2.60;;
63320;SDS011;49449;48.800;9.534;2023-07-31T13:52:38;3.67;;;2.45;;
63320;SDS011;49449;48.800;9.534;2023-07-31T13:55:07;4.32;;;2.63;;
63320;SDS011;49449;48.800;9.534;2023-07-31T13:57:35;4.30;;;3.05;;
63320;SDS011;49449;48.800;9.534;2023-07-31T14:00:03;4.47;;;2.67;;
63320;SDS011;49449;48.800;9.534;2023-07-31T14:02:32;5.18;;;2.58;;
63320;SDS011;49449;48.800;9.534;2023-07-31T14:05:00;4.55;;;2.58;;
63320;SDS011;49449;48.800;9.534;2023-07-31T14:07:29;4.40;;;2.40;;
63320;SDS011;49449;48.800;9.534;2023-07-31T14:09:59;5.63;;;2.65;;
63320;SDS011;49449;48.800;9.534;2023-07-31T14:12:26;4.75;;;2.75;;
63320;SDS011;49449;48.800;9.534;2023-07-31T14:15:05;3.25;;;2.28;;
63320;SDS011;49449;48.800;9.534;2023-07-31T14:17:35;3.25;;;2.10;;
63320;SDS011;49449;48.800;9.534;2023-07-31T14:20:03;4.13;;;2.40;;
63320;SDS011;49449;48.800;9.534;2023-07-31T14:22:32;4.20;;;2.70;;
63320;SDS011;49449;48.800;9.534;2023-07-31T14:25:01;4.32;;;2.40;;
63320;SDS011;49449;48.800;9.534;2023-07-31T14:27:29;4.90;;;2.65;;
63320;SDS011;49449;48.800;9.534;2023-07-31T14:29:57;4.30;;;2.92;;
63320;SDS011;49449;48.800;9.534;2023-07-31T14:32:25;3.03;;;2.30;;
63320;SDS011;49449;48.800;9.534;2023-07-31T14:34:54;4.00;;;2.38;;
63320;SDS011;49449;48.800;9.534;2023-07-31T14:37:22;4.35;;;2.40;;
63320;SDS011;49449;48.800;9.534;2023-07-31T14:39:50;4.97;;;2.45;;
63320;SDS011;49449;48.800;9.534;2023-07-31T14:42:18;3.03;;;2.42;;
63320;SDS011;49449;48.800;9.534;2023-07-31T14:44:45;4.15;;;2.55;;
63320;SDS011;49449;48.800;9.534;2023-07-31T14:47:14;3.75;;;2.63;;
63320;SDS011;49449;48.800;9.534;2023-07-31T14:49:42;2.80;;;2.30;;
63320;SDS011;49449;48.800;9.534;2023-07-31T14:52:11;5.10;;;2.70;;
63320;SDS011;49449;48.800;9.534;2023-07-31T14:54:39;4.60;;;2.78;;
63320;SDS011;49449;48.800;9.534;2023-07-31T14:57:07;4.85;;;2.80;;
63320;SDS011;49449;48.800;9.534;2023-07-31T14:59:36;6.00;;;2.50;;
63320;SDS011;49449;48.800;9.534;2023-07-31T15:02:04;4.00;;;2.75;;
63320;SDS011;49449;48.800;9.534;2023-07-31T15:04:32;4.35;;;2.40;;
63320;SDS011;49449;48.800;9.534;2023-07-31T15:07:00;5.05;;;2.58;;